createdAt,value
2019-04-28T00:00:05.396Z,6.52
2019-04-28T00:01:05.354Z,6.49
2019-04-28T00:02:05.326Z,6.51
2019-04-28T00:03:05.298Z,6.48
2019-04-28T00:04:05.291Z,6.52
2019-04-28T00:05:05.265Z,6.48
2019-04-28T00:06:05.222Z,6.57
2019-04-28T00:07:05.219Z,6.66
2019-04-28T00:08:05.185Z,6.57
2019-04-28T00:09:05.149Z,6.56
2019-04-28T00:10:05.124Z,6.60
2019-04-28T00:11:05.096Z,6.59
2019-04-28T00:12:05.076Z,6.62
2019-04-28T00:13:05.044Z,6.54
2019-04-28T00:14:05.021Z,6.57
2019-04-28T00:15:04.996Z,6.66
2019-04-28T00:16:04.970Z,6.59
2019-04-28T00:17:04.958Z,6.56
2019-04-28T00:18:04.916Z,6.54
2019-04-28T00:19:04.888Z,6.57
2019-04-28T00:20:04.878Z,6.59
2019-04-28T00:21:04.838Z,6.59
2019-04-28T00:22:04.824Z,6.60
2019-04-28T00:23:06.959Z,6.69
2019-04-28T00:24:04.769Z,6.74
2019-04-28T00:25:04.738Z,6.72
2019-04-28T00:26:04.713Z,6.72
2019-04-28T00:27:04.688Z,6.57
2019-04-28T00:28:04.662Z,6.57
2019-04-28T00:29:04.711Z,6.64
2019-04-28T00:30:04.691Z,6.63
2019-04-28T00:31:04.667Z,6.72
2019-04-28T00:32:04.620Z,6.67
2019-04-28T00:33:04.617Z,6.66
2019-04-28T00:34:05.407Z,6.64
2019-04-28T00:35:04.555Z,6.66
2019-04-28T00:36:04.536Z,6.69
2019-04-28T00:37:04.433Z,6.59
2019-04-28T00:38:04.409Z,6.56
2019-04-28T00:39:04.386Z,6.66
2019-04-28T00:40:04.360Z,6.63
2019-04-28T00:41:04.378Z,6.64
2019-04-28T00:42:04.359Z,6.64
2019-04-28T00:43:04.285Z,6.57
2019-04-28T00:44:04.256Z,6.70
2019-04-28T00:45:04.243Z,6.57
2019-04-28T00:46:12.551Z,6.63
2019-04-28T00:48:05.313Z,6.66
2019-04-28T00:49:05.067Z,6.72
2019-04-28T00:51:14.129Z,6.67
2019-04-28T00:52:00.691Z,6.77
2019-04-28T00:52:59.370Z,6.63
2019-04-28T00:54:00.824Z,6.60
2019-04-28T00:55:01.114Z,6.62
2019-04-28T00:55:59.289Z,6.56
2019-04-28T00:56:59.297Z,6.56
2019-04-28T00:58:00.851Z,6.60
2019-04-28T00:58:59.227Z,6.46
2019-04-28T00:59:59.204Z,6.60
2019-04-28T01:00:59.189Z,6.59
2019-04-28T01:02:01.125Z,6.45
2019-04-28T01:02:59.133Z,6.48
2019-04-28T01:03:59.121Z,6.46
2019-04-28T01:04:59.064Z,6.46
2019-04-28T01:05:59.065Z,6.48
2019-04-28T01:06:59.040Z,6.52
2019-04-28T01:08:00.995Z,6.56
2019-04-28T01:08:58.986Z,6.59
2019-04-28T01:09:58.961Z,6.57
2019-04-28T01:10:58.948Z,6.45
2019-04-28T01:11:58.916Z,6.45
2019-04-28T01:12:58.893Z,6.62
2019-04-28T01:13:58.859Z,6.62
2019-04-28T01:15:00.228Z,6.57
2019-04-28T01:15:59.415Z,6.56
2019-04-28T01:16:59.875Z,6.44
2019-04-28T01:18:00.571Z,6.49
2019-04-28T01:19:00.105Z,6.46
2019-04-28T01:19:59.792Z,6.45
2019-04-28T01:20:59.656Z,6.45
2019-04-28T01:22:00.362Z,6.59
2019-04-28T01:23:06.266Z,6.51
2019-04-28T01:24:52.526Z,6.59
2019-04-28T01:25:52.475Z,6.51
2019-04-28T01:26:52.454Z,6.48
2019-04-28T01:27:52.431Z,6.57
2019-04-28T01:28:52.398Z,6.51
2019-04-28T01:30:05.163Z,6.52
2019-04-28T01:30:52.346Z,6.62
2019-04-28T01:31:52.323Z,6.45
2019-04-28T01:32:52.295Z,6.54
2019-04-28T01:33:52.295Z,6.57
2019-04-28T01:34:52.244Z,6.56
2019-04-28T01:35:52.235Z,6.54
2019-04-28T01:36:52.230Z,6.59
2019-04-28T01:37:52.172Z,6.54
2019-04-28T01:38:52.141Z,6.60
2019-04-28T01:39:52.118Z,6.62
2019-04-28T01:40:52.103Z,6.56
2019-04-28T01:41:52.087Z,6.59
2019-04-28T01:42:52.042Z,6.57
2019-04-28T01:43:52.354Z,6.60
2019-04-28T01:44:52.021Z,6.54
2019-04-28T01:45:51.967Z,6.57
2019-04-28T01:46:51.945Z,6.63
2019-04-28T01:47:51.918Z,6.60
2019-04-28T01:48:51.891Z,6.60
2019-04-28T01:49:51.863Z,6.62
2019-04-28T01:50:51.846Z,6.56
2019-04-28T01:51:51.812Z,6.45
2019-04-28T01:52:51.791Z,6.51
2019-04-28T01:53:51.776Z,6.49
2019-04-28T01:54:51.742Z,6.48
2019-04-28T01:55:51.715Z,6.45
2019-04-28T01:56:51.689Z,6.52
2019-04-28T01:57:51.663Z,6.45
2019-04-28T01:58:51.761Z,6.54
2019-04-28T01:59:51.610Z,6.41
2019-04-28T02:00:51.587Z,6.51
2019-04-28T02:01:51.557Z,6.48
2019-04-28T02:02:51.541Z,6.44
2019-04-28T02:03:51.564Z,6.46
2019-04-28T02:04:51.488Z,6.49
2019-04-28T02:05:51.456Z,6.42
2019-04-28T02:06:51.446Z,6.44
2019-04-28T02:07:51.420Z,6.41
2019-04-28T02:08:51.386Z,6.36
2019-04-28T02:09:51.361Z,6.30
2019-04-28T02:10:51.335Z,6.33
2019-04-28T02:11:51.308Z,6.41
2019-04-28T02:12:51.283Z,6.38
2019-04-28T02:13:51.254Z,6.36
2019-04-28T02:14:52.151Z,6.31
2019-04-28T02:15:51.206Z,6.36
2019-04-28T02:16:51.176Z,6.33
2019-04-28T02:17:51.683Z,6.35
2019-04-28T02:18:51.122Z,6.36
2019-04-28T02:19:51.540Z,6.39
2019-04-28T02:20:51.129Z,6.36
2019-04-28T02:21:51.050Z,6.30
2019-04-28T02:22:51.027Z,6.33
2019-04-28T02:23:51.447Z,6.33
2019-04-28T02:24:50.972Z,6.35
2019-04-28T02:25:50.952Z,6.35
2019-04-28T02:26:52.751Z,6.35
2019-04-28T02:27:50.896Z,6.33
2019-04-28T02:28:50.875Z,6.41
2019-04-28T02:29:50.847Z,6.31
2019-04-28T02:30:53.861Z,6.33
2019-04-28T02:31:51.151Z,6.31
2019-04-28T02:32:51.834Z,6.33
2019-04-28T02:33:53.763Z,6.44
2019-04-28T02:34:50.948Z,6.33
2019-04-28T02:35:51.158Z,6.39
2019-04-28T02:36:53.984Z,6.33
2019-04-28T02:37:50.710Z,6.30
2019-04-28T02:38:51.333Z,6.36
2019-04-28T02:39:50.769Z,6.33
2019-04-28T02:40:50.668Z,6.28
2019-04-28T02:41:51.108Z,6.28
2019-04-28T02:42:52.181Z,6.38
2019-04-28T02:43:51.094Z,6.30
2019-04-28T02:44:50.629Z,6.39
2019-04-28T02:45:53.307Z,6.36
2019-04-28T02:46:50.837Z,6.30
2019-04-28T02:47:52.286Z,6.30
2019-04-28T02:48:53.796Z,6.39
2019-04-28T02:49:50.506Z,6.35
2019-04-28T02:50:50.993Z,6.31
2019-04-28T02:51:50.624Z,6.38
2019-04-28T02:52:51.947Z,6.42
2019-04-28T02:53:51.226Z,6.30
2019-04-28T02:54:50.894Z,6.49
2019-04-28T02:55:51.394Z,6.44
2019-04-28T02:56:51.064Z,6.51
2019-04-28T02:57:51.619Z,6.46
2019-04-28T02:58:51.046Z,6.36
2019-04-28T02:59:50.775Z,6.45
2019-04-28T03:01:02.763Z,6.48
2019-04-28T03:01:50.963Z,6.44
2019-04-28T03:02:51.398Z,6.33
2019-04-28T03:03:50.774Z,6.33
2019-04-28T03:04:50.778Z,6.46
2019-04-28T03:05:51.193Z,6.46
2019-04-28T03:06:51.795Z,6.46
2019-04-28T03:07:51.492Z,6.45
2019-04-28T03:08:50.578Z,6.51
2019-04-28T03:09:52.021Z,6.45
2019-04-28T03:10:50.872Z,6.44
2019-04-28T03:11:51.166Z,6.46
2019-04-28T03:12:51.630Z,6.54
2019-04-28T03:13:51.108Z,6.45
2019-04-28T03:14:50.550Z,6.49
2019-04-28T03:15:51.554Z,6.51
2019-04-28T03:16:50.962Z,6.48
2019-04-28T03:17:52.588Z,6.41
2019-04-28T03:18:51.449Z,6.44
2019-04-28T03:19:51.607Z,6.48
2019-04-28T03:20:51.566Z,6.44
2019-04-28T03:21:51.027Z,6.51
2019-04-28T03:22:51.099Z,6.56
2019-04-28T03:23:51.731Z,6.52
2019-04-28T03:24:51.050Z,6.49
2019-04-28T03:25:50.605Z,6.49
2019-04-28T03:26:50.843Z,6.51
2019-04-28T03:27:50.945Z,6.46
2019-04-28T03:28:51.361Z,6.33
2019-04-28T03:29:50.420Z,6.38
2019-04-28T03:30:53.254Z,6.45
2019-04-28T03:32:13.767Z,6.38
2019-04-28T03:32:55.461Z,6.42
2019-04-28T03:33:55.203Z,6.30
2019-04-28T03:34:53.951Z,6.35
2019-04-28T03:35:53.340Z,6.28
2019-04-28T03:36:51.721Z,6.31
2019-04-28T03:37:51.292Z,6.31
2019-04-28T03:38:50.393Z,6.41
2019-04-28T03:39:50.393Z,6.36
2019-04-28T03:40:51.223Z,6.31
2019-04-28T03:41:50.233Z,6.31
2019-04-28T03:42:51.354Z,6.31
2019-04-28T03:43:51.258Z,6.35
2019-04-28T03:44:51.217Z,6.35
2019-04-28T03:45:50.339Z,6.28
2019-04-28T03:46:51.227Z,6.30
2019-04-28T03:47:50.903Z,6.22
2019-04-28T03:48:50.872Z,6.27
2019-04-28T03:49:50.491Z,6.28
2019-04-28T03:50:51.221Z,6.20
2019-04-28T03:51:50.638Z,6.14
2019-04-28T03:52:51.112Z,6.16
2019-04-28T03:53:50.702Z,6.12
2019-04-28T03:54:50.820Z,6.12
2019-04-28T03:55:50.625Z,6.08
2019-04-28T03:56:50.192Z,6.05
2019-04-28T03:57:50.903Z,6.04
2019-04-28T03:58:50.459Z,6.02
2019-04-28T03:59:50.906Z,6.09
2019-04-28T04:00:50.603Z,6.08
2019-04-28T04:01:56.764Z,5.98
2019-04-28T04:02:50.738Z,6.01
2019-04-28T04:03:51.329Z,6.07
2019-04-28T04:04:48.431Z,5.98
2019-04-28T04:05:50.782Z,5.94
2019-04-28T04:06:50.757Z,5.93
2019-04-28T04:07:50.494Z,6.01
2019-04-28T04:08:50.545Z,5.86
2019-04-28T04:09:51.171Z,5.87
2019-04-28T04:10:50.304Z,5.97
2019-04-28T04:11:50.828Z,5.86
2019-04-28T04:12:50.662Z,5.86
2019-04-28T04:13:48.216Z,5.99
2019-04-28T04:14:50.584Z,5.87
2019-04-28T04:15:52.686Z,5.87
2019-04-28T04:16:50.187Z,5.90
2019-04-28T04:17:50.833Z,6.02
2019-04-28T04:18:53.005Z,5.98
2019-04-28T04:19:50.254Z,6.01
2019-04-28T04:20:50.981Z,6.02
2019-04-28T04:21:50.382Z,5.99
2019-04-28T04:22:47.974Z,6.02
2019-04-28T04:23:50.773Z,5.99
2019-04-28T04:24:50.001Z,5.99
2019-04-28T04:25:47.896Z,5.99
2019-04-28T04:26:50.456Z,5.90
2019-04-28T04:27:50.086Z,5.99
2019-04-28T04:28:47.820Z,5.91
2019-04-28T04:29:47.798Z,5.91
2019-04-28T04:30:50.500Z,5.89
2019-04-28T04:31:47.747Z,6.02
2019-04-28T04:32:47.737Z,5.94
2019-04-28T04:33:50.313Z,5.99
2019-04-28T04:34:50.385Z,5.86
2019-04-28T04:35:47.644Z,6.05
2019-04-28T04:36:47.626Z,5.98
2019-04-28T04:37:50.276Z,6.01
2019-04-28T04:38:47.575Z,5.87
2019-04-28T04:39:47.547Z,5.97
2019-04-28T04:40:47.518Z,6.02
2019-04-28T04:41:47.498Z,5.91
2019-04-28T04:42:50.145Z,5.93
2019-04-28T04:43:47.443Z,5.90
2019-04-28T04:44:47.411Z,5.87
2019-04-28T04:45:50.086Z,5.90
2019-04-28T04:46:47.363Z,5.94
2019-04-28T04:47:47.339Z,6.02
2019-04-28T04:48:47.311Z,5.91
2019-04-28T04:49:47.282Z,6.02
2019-04-28T04:50:47.268Z,6.09
2019-04-28T04:51:47.242Z,6.09
2019-04-28T04:52:47.213Z,6.08
2019-04-28T04:53:47.192Z,6.14
2019-04-28T04:54:47.167Z,6.22
2019-04-28T04:55:47.141Z,6.19
2019-04-28T04:56:47.105Z,6.30
2019-04-28T04:57:47.089Z,6.36
2019-04-28T04:58:47.061Z,6.33
2019-04-28T04:59:47.043Z,6.36
2019-04-28T05:00:47.012Z,6.35
2019-04-28T05:01:46.989Z,6.33
2019-04-28T05:02:51.983Z,6.44
2019-04-28T05:03:46.946Z,6.45
2019-04-28T05:04:46.915Z,6.54
2019-04-28T05:05:46.882Z,6.48
2019-04-28T05:06:46.861Z,6.62
2019-04-28T05:07:46.833Z,6.57
2019-04-28T05:08:46.813Z,6.59
2019-04-28T05:09:46.783Z,6.72
2019-04-28T05:10:46.765Z,6.63
2019-04-28T05:11:46.749Z,6.78
2019-04-28T05:12:46.714Z,6.78
2019-04-28T05:13:46.689Z,6.87
2019-04-28T05:14:46.665Z,6.96
2019-04-28T05:15:46.638Z,6.97
2019-04-28T05:16:46.613Z,6.89
2019-04-28T05:17:46.593Z,7.06
2019-04-28T05:18:46.560Z,7.13
2019-04-28T05:19:46.542Z,7.05
2019-04-28T05:20:46.515Z,7.06
2019-04-28T05:21:46.499Z,7.18
2019-04-28T05:22:46.475Z,7.47
2019-04-28T05:23:46.446Z,7.60
2019-04-28T05:24:50.528Z,7.75
2019-04-28T05:25:46.400Z,7.85
2019-04-28T05:26:47.699Z,7.79
2019-04-28T05:27:46.346Z,7.80
2019-04-28T05:28:51.574Z,7.72
2019-04-28T05:29:46.295Z,7.73
2019-04-28T05:30:46.289Z,7.67
2019-04-28T05:31:46.249Z,7.66
2019-04-28T05:32:53.608Z,7.60
2019-04-28T05:33:46.220Z,7.39
2019-04-28T05:34:47.159Z,7.29
2019-04-28T05:35:46.152Z,7.28
2019-04-28T05:36:46.135Z,7.10
2019-04-28T05:37:46.129Z,7.20
2019-04-28T05:38:46.089Z,7.07
2019-04-28T05:39:46.063Z,7.28
2019-04-28T05:40:46.033Z,7.28
2019-04-28T05:41:46.011Z,7.10
2019-04-28T05:42:45.992Z,7.13
2019-04-28T05:43:45.966Z,7.13
2019-04-28T05:44:45.943Z,7.21
2019-04-28T05:45:45.915Z,7.29
2019-04-28T05:46:45.895Z,7.38
2019-04-28T05:47:45.870Z,7.58
2019-04-28T05:48:45.865Z,7.95
2019-04-28T05:49:45.850Z,8.20
2019-04-28T05:50:45.800Z,8.20
2019-04-28T05:51:45.781Z,8.20
2019-04-28T05:52:45.766Z,8.15
2019-04-28T05:53:45.728Z,8.49
2019-04-28T05:54:45.741Z,8.71
2019-04-28T05:55:45.686Z,8.85
2019-04-28T05:56:45.661Z,9.02
2019-04-28T05:57:45.638Z,9.21
2019-04-28T05:58:45.611Z,9.47
2019-04-28T05:59:45.603Z,9.48
2019-04-28T06:00:45.575Z,9.64
2019-04-28T06:01:45.550Z,9.61
2019-04-28T06:02:55.527Z,9.68
2019-04-28T06:03:45.508Z,9.77
2019-04-28T06:04:45.490Z,9.98
2019-04-28T06:05:45.466Z,10.16
2019-04-28T06:06:45.443Z,9.87
2019-04-28T06:07:45.420Z,9.94
2019-04-28T06:08:45.402Z,9.89
2019-04-28T06:09:45.384Z,9.86
2019-04-28T06:10:45.357Z,9.79
2019-04-28T06:11:45.338Z,9.44
2019-04-28T06:12:45.332Z,9.13
2019-04-28T06:13:45.293Z,8.88
2019-04-28T06:14:45.285Z,8.74
2019-04-28T06:15:45.253Z,8.52
2019-04-28T06:16:45.231Z,8.46
2019-04-28T06:17:45.205Z,8.58
2019-04-28T06:18:45.187Z,8.97
2019-04-28T06:19:45.168Z,9.19
2019-04-28T06:20:45.151Z,8.88
2019-04-28T06:21:45.125Z,8.92
2019-04-28T06:22:45.105Z,8.55
2019-04-28T06:23:45.105Z,8.49
2019-04-28T06:24:45.069Z,8.45
2019-04-28T06:25:45.041Z,8.49
2019-04-28T06:26:45.018Z,8.24
2019-04-28T06:27:45.002Z,8.24
2019-04-28T06:28:44.982Z,8.38
2019-04-28T06:29:44.958Z,8.34
2019-04-28T06:30:44.941Z,8.46
2019-04-28T06:31:44.918Z,8.49
2019-04-28T06:32:44.901Z,8.42
2019-04-28T06:33:45.479Z,8.55
2019-04-28T06:34:44.875Z,8.64
2019-04-28T06:35:44.837Z,8.71
2019-04-28T06:36:44.815Z,8.44
2019-04-28T06:37:44.791Z,8.31
2019-04-28T06:38:44.791Z,8.19
2019-04-28T06:39:47.239Z,8.10
2019-04-28T06:40:44.724Z,8.01
2019-04-28T06:41:44.708Z,7.82
2019-04-28T06:42:44.687Z,7.73
2019-04-28T06:43:44.664Z,7.76
2019-04-28T06:44:44.652Z,7.72
2019-04-28T06:45:44.622Z,7.69
2019-04-28T06:46:44.595Z,7.58
2019-04-28T06:47:44.581Z,7.56
2019-04-28T06:48:44.558Z,7.61
2019-04-28T06:49:44.555Z,7.61
2019-04-28T06:50:44.513Z,7.67
2019-04-28T06:51:44.491Z,7.69
2019-04-28T06:52:44.470Z,7.58
2019-04-28T06:53:44.448Z,7.54
2019-04-28T06:54:44.426Z,7.54
2019-04-28T06:55:44.407Z,7.48
2019-04-28T06:56:44.379Z,7.54
2019-04-28T06:57:44.358Z,7.58
2019-04-28T06:58:44.333Z,7.57
2019-04-28T06:59:44.314Z,7.58
2019-04-28T07:00:44.982Z,7.51
2019-04-28T07:01:44.267Z,7.54
2019-04-28T07:02:44.237Z,7.40
2019-04-28T07:03:44.228Z,7.32
2019-04-28T07:04:44.201Z,7.29
2019-04-28T07:05:44.180Z,7.33
2019-04-28T07:06:44.154Z,7.40
2019-04-28T07:07:44.135Z,7.42
2019-04-28T07:08:44.125Z,7.53
2019-04-28T07:09:44.097Z,7.54
2019-04-28T07:10:44.066Z,7.47
2019-04-28T07:11:44.039Z,7.48
2019-04-28T07:12:44.023Z,7.45
2019-04-28T07:13:43.995Z,7.51
2019-04-28T07:14:43.975Z,7.54
2019-04-28T07:15:43.952Z,7.60
2019-04-28T07:16:43.925Z,7.60
2019-04-28T07:17:43.901Z,7.48
2019-04-28T07:18:43.882Z,7.63
2019-04-28T07:19:43.860Z,7.72
2019-04-28T07:20:43.830Z,7.72
2019-04-28T07:21:43.810Z,7.69
2019-04-28T07:22:43.787Z,7.72
2019-04-28T07:23:43.767Z,7.75
2019-04-28T07:24:44.916Z,7.85
2019-04-28T07:25:43.719Z,7.82
2019-04-28T07:26:43.693Z,7.97
2019-04-28T07:27:43.693Z,7.93
2019-04-28T07:28:43.649Z,7.87
2019-04-28T07:29:43.629Z,7.80
2019-04-28T07:30:43.607Z,7.98
2019-04-28T07:31:43.594Z,8.09
2019-04-28T07:32:43.564Z,8.19
2019-04-28T07:33:43.537Z,8.20
2019-04-28T07:34:43.509Z,8.27
2019-04-28T07:35:43.492Z,8.46
2019-04-28T07:36:43.469Z,8.51
2019-04-28T07:37:43.448Z,8.56
2019-04-28T07:38:43.431Z,8.52
2019-04-28T07:39:43.404Z,8.31
2019-04-28T07:40:43.377Z,8.13
2019-04-28T07:41:43.354Z,8.13
2019-04-28T07:42:43.328Z,8.28
2019-04-28T07:43:43.329Z,8.45
2019-04-28T07:44:43.308Z,8.56
2019-04-28T07:45:43.264Z,8.76
2019-04-28T07:46:43.254Z,8.94
2019-04-28T07:47:43.219Z,8.82
2019-04-28T07:48:43.200Z,8.78
2019-04-28T07:49:43.196Z,8.71
2019-04-28T07:50:43.168Z,8.91
2019-04-28T07:51:43.124Z,8.95
2019-04-28T07:52:43.113Z,9.04
2019-04-28T07:53:43.095Z,9.22
2019-04-28T07:54:43.064Z,9.28
2019-04-28T07:55:43.042Z,9.34
2019-04-28T07:56:43.042Z,9.73
2019-04-28T07:57:43.000Z,9.83
2019-04-28T07:58:42.982Z,9.98
2019-04-28T07:59:42.962Z,9.72
2019-04-28T08:00:42.935Z,9.37
2019-04-28T08:01:42.922Z,9.55
2019-04-28T08:02:42.914Z,9.94
2019-04-28T08:03:49.234Z,10.23
2019-04-28T08:04:42.869Z,10.34
2019-04-28T08:05:42.832Z,10.35
2019-04-28T08:06:42.826Z,10.25
2019-04-28T08:07:42.811Z,10.23
2019-04-28T08:08:42.777Z,9.95
2019-04-28T08:09:42.762Z,9.68
2019-04-28T08:10:42.735Z,9.21
2019-04-28T08:11:42.715Z,9.21
2019-04-28T08:12:42.698Z,9.16
2019-04-28T08:13:42.678Z,9.51
2019-04-28T08:14:42.661Z,10.67
2019-04-28T08:15:42.653Z,10.94
2019-04-28T08:16:42.621Z,10.41
2019-04-28T08:17:42.605Z,10.15
2019-04-28T08:18:42.586Z,10.13
2019-04-28T08:19:42.565Z,10.12
2019-04-28T08:20:42.549Z,10.13
2019-04-28T08:21:42.533Z,10.57
2019-04-28T08:22:42.507Z,10.49
2019-04-28T08:23:47.306Z,10.12
2019-04-28T08:24:42.474Z,9.98
2019-04-28T08:25:42.482Z,9.95
2019-04-28T08:26:42.449Z,9.83
2019-04-28T08:27:42.426Z,9.86
2019-04-28T08:28:42.421Z,9.66
2019-04-28T08:29:42.392Z,9.54
2019-04-28T08:30:42.374Z,9.54
2019-04-28T08:31:42.399Z,9.50
2019-04-28T08:32:42.334Z,9.34
2019-04-28T08:33:42.313Z,9.39
2019-04-28T08:34:42.298Z,9.36
2019-04-28T08:35:42.276Z,9.34
2019-04-28T08:36:42.253Z,9.06
2019-04-28T08:37:42.235Z,8.84
2019-04-28T08:38:42.225Z,9.00
2019-04-28T08:39:42.198Z,8.97
2019-04-28T08:40:42.175Z,9.28
2019-04-28T08:41:42.166Z,9.40
2019-04-28T08:42:42.146Z,9.48
2019-04-28T08:43:42.126Z,9.62
2019-04-28T08:44:42.121Z,9.69
2019-04-28T08:45:42.094Z,9.83
2019-04-28T08:46:42.083Z,9.99
2019-04-28T08:47:42.054Z,9.77
2019-04-28T08:48:42.047Z,9.86
2019-04-28T08:49:42.013Z,10.13
2019-04-28T08:50:41.991Z,9.97
2019-04-28T08:51:41.974Z,10.74
2019-04-28T08:52:41.955Z,11.77
2019-04-28T08:53:41.938Z,11.60
2019-04-28T08:54:41.920Z,11.10
2019-04-28T08:55:41.903Z,10.82
2019-04-28T08:56:41.880Z,10.68
2019-04-28T08:57:41.865Z,11.10
2019-04-28T08:58:41.859Z,11.23
2019-04-28T08:59:41.832Z,10.76
2019-04-28T09:00:41.813Z,10.60
2019-04-28T09:01:41.794Z,10.75
2019-04-28T09:02:41.776Z,10.75
2019-04-28T09:03:41.766Z,10.86
2019-04-28T09:04:41.752Z,10.68
2019-04-28T09:05:41.730Z,10.38
2019-04-28T09:06:41.717Z,10.42
2019-04-28T09:07:41.711Z,10.53
2019-04-28T09:08:41.684Z,10.57
2019-04-28T09:09:41.666Z,10.41
2019-04-28T09:10:41.651Z,9.97
2019-04-28T09:11:41.713Z,9.77
2019-04-28T09:12:41.616Z,9.82
2019-04-28T09:13:43.791Z,9.72
2019-04-28T09:14:41.584Z,10.10
2019-04-28T09:15:41.558Z,10.44
2019-04-28T09:16:41.558Z,10.74
2019-04-28T09:17:41.529Z,10.84
2019-04-28T09:18:41.511Z,10.38
2019-04-28T09:19:42.544Z,10.40
2019-04-28T09:20:41.471Z,10.63
2019-04-28T09:21:41.456Z,10.68
2019-04-28T09:22:41.438Z,11.40
2019-04-28T09:23:41.421Z,11.72
2019-04-28T09:24:41.415Z,11.54
2019-04-28T09:25:41.387Z,11.05
2019-04-28T09:26:41.369Z,10.74
2019-04-28T09:27:41.353Z,10.81
2019-04-28T09:28:41.332Z,10.78
2019-04-28T09:29:41.328Z,10.89
2019-04-28T09:30:41.307Z,10.60
2019-04-28T09:31:41.287Z,10.54
2019-04-28T09:32:41.270Z,10.68
2019-04-28T09:33:41.249Z,10.57
2019-04-28T09:34:41.227Z,10.59
2019-04-28T09:35:41.214Z,10.63
2019-04-28T09:36:41.215Z,10.53
2019-04-28T09:37:41.180Z,10.44
2019-04-28T09:38:41.179Z,10.40
2019-04-28T09:39:41.149Z,10.30
2019-04-28T09:40:41.129Z,10.53
2019-04-28T09:41:41.113Z,10.57
2019-04-28T09:42:41.092Z,10.51
2019-04-28T09:43:41.076Z,10.72
2019-04-28T09:44:41.057Z,11.00
2019-04-28T09:45:41.048Z,10.89
2019-04-28T09:46:41.042Z,10.96
2019-04-28T09:47:41.022Z,10.67
2019-04-28T09:48:40.987Z,10.54
2019-04-28T09:49:40.968Z,10.54
2019-04-28T09:50:40.943Z,10.38
2019-04-28T09:51:40.933Z,10.44
2019-04-28T09:52:40.915Z,10.12
2019-04-28T09:53:40.899Z,10.12
2019-04-28T09:54:40.879Z,10.44
2019-04-28T09:55:40.859Z,11.02
2019-04-28T09:56:40.838Z,11.66
2019-04-28T09:57:40.824Z,11.87
2019-04-28T09:58:40.811Z,12.25
2019-04-28T09:59:40.791Z,12.15
2019-04-28T10:00:40.772Z,12.10
2019-04-28T10:01:40.755Z,12.60
2019-04-28T10:02:40.739Z,12.53
2019-04-28T10:03:40.719Z,12.28
2019-04-28T10:04:41.913Z,12.25
2019-04-28T10:05:40.687Z,12.45
2019-04-28T10:06:40.673Z,12.90
2019-04-28T10:07:40.659Z,12.82
2019-04-28T10:08:40.639Z,12.98
2019-04-28T10:09:40.625Z,13.22
2019-04-28T10:10:40.611Z,12.97
2019-04-28T10:11:40.590Z,12.07
2019-04-28T10:12:40.582Z,11.75
2019-04-28T10:13:40.577Z,12.35
2019-04-28T10:14:40.547Z,13.38
2019-04-28T10:15:40.534Z,13.85
2019-04-28T10:18:05.161Z,15.33
2019-04-28T10:19:05.090Z,14.65
2019-04-28T10:21:06.511Z,15.10
2019-04-28T10:22:06.552Z,15.18
2019-04-28T10:23:06.503Z,15.49
2019-04-28T10:24:06.474Z,15.72
2019-04-28T10:25:06.486Z,15.43
2019-04-28T10:26:06.464Z,14.65
2019-04-28T10:27:06.482Z,13.30
2019-04-28T10:28:06.463Z,13.23
2019-04-28T10:29:06.411Z,13.68
2019-04-28T10:30:06.405Z,14.30
2019-04-28T10:31:06.412Z,14.77
2019-04-28T10:32:06.387Z,14.94
2019-04-28T10:33:06.387Z,15.21
2019-04-28T10:34:06.378Z,15.09
2019-04-28T10:35:06.345Z,15.17
2019-04-28T10:36:06.341Z,15.57
2019-04-28T10:37:06.321Z,15.97
2019-04-28T10:38:06.325Z,16.39
2019-04-28T10:39:06.300Z,16.81
2019-04-28T10:40:06.304Z,16.54
2019-04-28T10:41:06.282Z,16.61
2019-04-28T10:42:06.282Z,16.81
2019-04-28T10:43:06.259Z,16.57
2019-04-28T10:44:08.512Z,15.33
2019-04-28T10:45:06.243Z,14.04
2019-04-28T10:46:06.228Z,13.12
2019-04-28T10:47:06.219Z,12.22
2019-04-28T10:48:06.226Z,11.95
2019-04-28T10:49:06.232Z,12.10
2019-04-28T10:50:06.203Z,12.03
2019-04-28T10:51:06.172Z,12.06
2019-04-28T10:52:06.294Z,12.65
2019-04-28T10:53:06.248Z,13.41
2019-04-28T10:54:06.161Z,13.44
2019-04-28T10:55:06.176Z,14.23
2019-04-28T10:56:06.121Z,14.81
2019-04-28T10:57:06.118Z,15.44
2019-04-28T10:58:06.111Z,15.86
2019-04-28T10:59:06.123Z,16.05
2019-04-28T11:00:06.063Z,16.81
2019-04-28T11:01:06.092Z,16.74
2019-04-28T11:02:06.059Z,16.36
2019-04-28T11:03:06.024Z,16.35
2019-04-28T11:04:06.052Z,16.53
2019-04-28T11:05:08.640Z,15.44
2019-04-28T11:06:06.006Z,16.04
2019-04-28T11:07:05.974Z,16.57
2019-04-28T11:08:05.970Z,17.15
2019-04-28T11:09:05.972Z,17.15
2019-04-28T11:10:05.960Z,16.35
2019-04-28T11:11:05.994Z,15.54
2019-04-28T11:12:05.968Z,14.07
2019-04-28T11:13:05.916Z,13.50
2019-04-28T11:14:05.941Z,12.95
2019-04-28T11:15:05.905Z,12.93
2019-04-28T11:16:05.901Z,12.87
2019-04-28T11:17:05.902Z,12.67
2019-04-28T11:18:05.941Z,12.39
2019-04-28T11:19:05.876Z,12.06
2019-04-28T11:20:05.886Z,11.95
2019-04-28T11:21:05.826Z,11.91
2019-04-28T11:22:05.829Z,11.99
2019-04-28T11:23:05.806Z,11.97
2019-04-28T11:24:05.828Z,11.88
2019-04-28T11:25:05.828Z,11.95
2019-04-28T11:26:05.753Z,11.60
2019-04-28T11:27:05.747Z,11.44
2019-04-28T11:28:05.761Z,11.55
2019-04-28T11:29:05.732Z,11.72
2019-04-28T11:30:05.730Z,11.75
2019-04-28T11:31:05.693Z,11.83
2019-04-28T11:32:05.670Z,11.87
2019-04-28T11:33:05.660Z,11.87
2019-04-28T11:34:05.638Z,12.09
2019-04-28T11:35:05.640Z,11.90
2019-04-28T11:36:05.610Z,11.88
2019-04-28T11:37:05.622Z,12.12
2019-04-28T11:38:05.595Z,12.17
2019-04-28T11:39:05.598Z,12.25
2019-04-28T11:40:05.543Z,12.29
2019-04-28T11:41:05.563Z,12.53
2019-04-28T11:42:05.555Z,12.65
2019-04-28T11:43:05.525Z,12.32
2019-04-28T11:44:05.511Z,12.42
2019-04-28T11:45:05.501Z,12.43
2019-04-28T11:46:05.466Z,12.32
2019-04-28T11:47:05.438Z,12.28
2019-04-28T11:48:05.439Z,12.46
2019-04-28T11:49:05.419Z,12.64
2019-04-28T11:50:05.432Z,12.86
2019-04-28T11:51:05.390Z,12.83
2019-04-28T11:52:05.403Z,13.00
2019-04-28T11:53:05.348Z,12.85
2019-04-28T11:54:05.320Z,13.11
2019-04-28T11:55:05.361Z,13.18
2019-04-28T11:56:05.324Z,13.05
2019-04-28T11:57:05.263Z,13.25
2019-04-28T11:58:05.334Z,13.22
2019-04-28T11:59:05.252Z,13.13
2019-04-28T12:00:05.261Z,13.20
2019-04-28T12:01:05.220Z,13.31
2019-04-28T12:02:05.192Z,13.15
2019-04-28T12:03:05.179Z,13.27
2019-04-28T12:04:05.181Z,13.04
2019-04-28T12:05:05.143Z,13.01
2019-04-28T12:06:05.127Z,13.41
2019-04-28T12:07:05.137Z,13.85
2019-04-28T12:08:05.126Z,14.28
2019-04-28T12:09:05.104Z,14.40
2019-04-28T12:10:06.143Z,15.04
2019-04-28T12:11:05.085Z,15.22
2019-04-28T12:12:05.053Z,15.73
2019-04-28T12:13:05.065Z,15.54
2019-04-28T12:14:05.030Z,15.59
2019-04-28T12:15:05.050Z,15.29
2019-04-28T12:16:04.988Z,15.31
2019-04-28T12:17:04.996Z,15.03
2019-04-28T12:18:05.012Z,14.30
2019-04-28T12:19:04.940Z,14.22
2019-04-28T12:20:04.938Z,14.41
2019-04-28T12:21:04.910Z,14.51
2019-04-28T12:22:04.925Z,14.69
2019-04-28T12:23:04.932Z,14.79
2019-04-28T12:24:04.877Z,15.40
2019-04-28T12:25:04.910Z,16.51
2019-04-28T12:26:04.844Z,16.76
2019-04-28T12:27:04.880Z,16.65
2019-04-28T12:28:04.842Z,16.54
2019-04-28T12:29:04.860Z,16.75
2019-04-28T12:30:04.829Z,16.23
2019-04-28T12:31:04.774Z,15.91
2019-04-28T12:32:04.781Z,16.13
2019-04-28T12:33:04.762Z,16.57
2019-04-28T12:34:04.755Z,16.38
2019-04-28T12:35:04.726Z,16.91
2019-04-28T12:36:04.724Z,17.36
2019-04-28T12:37:04.701Z,17.90
2019-04-28T12:38:04.718Z,17.64
2019-04-28T12:39:04.723Z,17.92
2019-04-28T12:40:04.686Z,17.23
2019-04-28T12:41:04.659Z,17.08
2019-04-28T12:42:04.639Z,16.79
2019-04-28T12:43:04.639Z,17.39
2019-04-28T12:44:04.688Z,17.31
2019-04-28T12:45:04.649Z,17.59
2019-04-28T12:46:04.624Z,17.23
2019-04-28T12:47:04.605Z,16.46
2019-04-28T12:48:04.602Z,16.00
2019-04-28T12:49:04.579Z,15.73
2019-04-28T12:50:04.579Z,15.76
2019-04-28T12:51:04.572Z,16.28
2019-04-28T12:52:04.563Z,17.12
2019-04-28T12:53:04.565Z,17.86
2019-04-28T12:54:04.525Z,18.07
2019-04-28T12:55:04.519Z,18.65
2019-04-28T12:56:04.518Z,17.94
2019-04-28T12:57:04.500Z,18.31
2019-04-28T12:58:04.498Z,18.75
2019-04-28T12:59:04.493Z,18.20
2019-04-28T13:00:04.456Z,17.87
2019-04-28T13:01:04.453Z,18.43
2019-04-28T13:02:04.433Z,19.27
2019-04-28T13:03:04.441Z,19.69
2019-04-28T13:04:04.439Z,18.95
2019-04-28T13:05:04.411Z,17.98
2019-04-28T13:06:05.965Z,17.85
2019-04-28T13:07:04.388Z,17.95
2019-04-28T13:08:04.428Z,18.59
2019-04-28T13:09:04.403Z,18.65
2019-04-28T13:10:04.370Z,18.18
2019-04-28T13:11:04.387Z,18.28
2019-04-28T13:12:04.358Z,19.12
2019-04-28T13:13:04.331Z,18.86
2019-04-28T13:14:04.304Z,18.41